Time;durP1;ratioP1;P1;durP2;ratioP2;P2;SDS_P1;SDS_P2;PMS_P1;PMS_P2;Temp;Humidity;BMP_temperature;BMP_pressure;BME280_temperature;BME280_humidity;BME280_pressure;Samples;Min_cycle;Max_cycle;Signal;HPM_P1;HPM_P2
2021/01/03 00:00:37;;;;;;;12.07;11.00;;;2.30;99.90;;;;;;5042552;28;20052;-76
2021/01/03 00:03:04;;;;;;;11.80;10.77;;;2.20;99.90;;;;;;5029344;28;20049;-75
2021/01/03 00:05:32;;;;;;;13.50;12.18;;;2.20;99.90;;;;;;5045808;28;20118;-74
2021/01/03 00:07:59;;;;;;;12.70;11.40;;;2.10;99.90;;;;;;5020988;28;20080;-74
2021/01/03 00:10:26;;;;;;;17.02;11.63;;;2.20;99.90;;;;;;5047832;28;20053;-74
2021/01/03 00:12:53;;;;;;;13.52;12.23;;;2.30;99.90;;;;;;5046879;28;20477;-74
2021/01/03 00:15:22;;;;;;;13.20;11.70;;;2.30;99.90;;;;;;5045242;28;20081;-74
2021/01/03 00:17:50;;;;;;;12.85;11.60;;;2.30;99.90;;;;;;5047930;28;20482;-74
2021/01/03 00:20:20;;;;;;;11.65;10.57;;;2.20;99.90;;;;;;5046028;28;20053;-74
2021/01/03 00:22:48;;;;;;;12.60;11.40;;;2.20;99.90;;;;;;5048233;28;20067;-74
2021/01/03 00:25:16;;;;;;;11.30;10.20;;;2.20;99.90;;;;;;5046109;28;20051;-73
2021/01/03 00:27:43;;;;;;;10.73;9.73;;;2.20;99.90;;;;;;5044616;28;20060;-74
2021/01/03 00:30:12;;;;;;;13.00;11.65;;;2.10;99.90;;;;;;5028783;28;20508;-73
2021/01/03 00:32:39;;;;;;;12.75;11.40;;;2.20;99.90;;;;;;5046360;28;20063;-74
2021/01/03 00:35:07;;;;;;;17.52;13.95;;;2.20;99.90;;;;;;5046920;28;20059;-74
2021/01/03 00:37:33;;;;;;;13.98;11.98;;;2.30;99.90;;;;;;5039020;28;20189;-74
2021/01/03 00:40:00;;;;;;;15.23;11.20;;;2.30;99.90;;;;;;5048088;28;20159;-74
2021/01/03 00:42:26;;;;;;;12.52;11.32;;;2.30;99.90;;;;;;5028555;28;20140;-74
2021/01/03 00:44:53;;;;;;;12.88;11.48;;;2.30;99.90;;;;;;5047206;28;20150;-74
2021/01/03 00:47:19;;;;;;;13.13;10.48;;;2.30;99.90;;;;;;5046672;28;20088;-74
2021/01/03 00:49:45;;;;;;;11.63;10.40;;;2.30;99.90;;;;;;5047707;28;20095;-74
2021/01/03 00:52:12;;;;;;;11.38;10.27;;;2.30;99.90;;;;;;5044968;28;20267;-75
2021/01/03 00:54:38;;;;;;;11.48;10.18;;;2.30;99.90;;;;;;5045397;28;20581;-74
2021/01/03 00:57:04;;;;;;;11.40;10.02;;;2.30;99.90;;;;;;5037961;28;20060;-74
2021/01/03 00:59:30;;;;;;;12.20;10.85;;;2.40;99.90;;;;;;5040319;28;20111;-74
2021/01/03 01:01:57;;;;;;;14.70;10.73;;;2.30;99.90;;;;;;5045135;28;20125;-74
2021/01/03 01:04:23;;;;;;;12.88;11.52;;;2.40;99.90;;;;;;5045316;28;20561;-75
2021/01/03 01:06:49;;;;;;;13.07;11.90;;;2.40;99.90;;;;;;5035942;28;20050;-75
2021/01/03 01:09:16;;;;;;;11.00;9.93;;;2.50;99.90;;;;;;5046828;28;20059;-74
2021/01/03 01:11:42;;;;;;;12.75;10.63;;;2.50;99.90;;;;;;5044885;28;20111;-74
2021/01/03 01:14:10;;;;;;;11.00;9.68;;;2.30;99.90;;;;;;5046867;28;20107;-74
2021/01/03 01:16:37;;;;;;;11.55;10.35;;;2.30;99.90;;;;;;5022830;28;20148;-74
2021/01/03 01:19:04;;;;;;;11.93;10.45;;;2.20;99.90;;;;;;5043027;28;20114;-74
2021/01/03 01:21:31;;;;;;;12.05;10.43;;;2.30;99.90;;;;;;5028991;28;20133;-74
2021/01/03 01:23:58;;;;;;;12.10;10.85;;;2.30;99.90;;;;;;5013502;28;20103;-74
2021/01/03 01:26:24;;;;;;;12.07;10.93;;;2.30;99.90;;;;;;5036390;28;20512;-74
2021/01/03 01:28:50;;;;;;;11.48;10.27;;;2.30;99.90;;;;;;5046434;28;20495;-75
2021/01/03 01:31:17;;;;;;;11.63;10.43;;;2.30;99.90;;;;;;5028072;28;20052;-74
2021/01/03 01:33:44;;;;;;;11.75;10.55;;;2.20;99.90;;;;;;5046233;28;20137;-74
2021/01/03 01:36:11;;;;;;;11.05;10.05;;;2.20;99.90;;;;;;5039551;28;20062;-74
2021/01/03 01:38:37;;;;;;;11.57;10.43;;;2.20;99.90;;;;;;5044777;28;20061;-74
2021/01/03 01:41:04;;;;;;;11.23;10.23;;;2.20;99.90;;;;;;5025796;28;20076;-74
2021/01/03 01:43:31;;;;;;;11.40;10.30;;;2.20;99.90;;;;;;5026277;28;20046;-74
2021/01/03 01:45:59;;;;;;;11.65;10.55;;;2.20;99.90;;;;;;5024360;28;20057;-74
2021/01/03 01:48:32;;;;;;;10.68;9.60;;;2.10;99.90;;;;;;5026550;28;20076;-74
2021/01/03 01:51:06;;;;;;;11.48;10.27;;;2.20;99.90;;;;;;5021976;28;20047;-74
2021/01/03 01:53:49;;;;;;;9.70;8.88;;;2.20;99.90;;;;;;5046307;28;20639;-75
2021/01/03 01:56:24;;;;;;;10.35;9.48;;;2.20;99.90;;;;;;5045250;28;20147;-74
2021/01/03 01:58:59;;;;;;;11.02;10.02;;;2.30;99.90;;;;;;5043055;28;20080;-74
2021/01/03 02:01:36;;;;;;;13.13;10.50;;;2.30;99.90;;;;;;5036569;28;20053;-74
2021/01/03 02:04:12;;;;;;;10.65;9.65;;;2.30;99.90;;;;;;5010027;28;20145;-74
2021/01/03 02:06:51;;;;;;;12.32;11.13;;;2.20;99.90;;;;;;5042664;28;20060;-74
2021/01/03 02:09:25;;;;;;;10.55;9.55;;;2.20;99.90;;;;;;5033185;28;20115;-74
2021/01/03 02:12:07;;;;;;;11.45;10.45;;;2.20;99.90;;;;;;5020817;28;20184;-74
2021/01/03 02:14:33;;;;;;;11.43;10.43;;;2.20;99.90;;;;;;5039912;28;20168;-74
2021/01/03 02:17:00;;;;;;;11.60;10.60;;;2.20;99.90;;;;;;5042549;28;20215;-75
2021/01/03 02:19:33;;;;;;;12.30;11.05;;;2.20;99.90;;;;;;5043930;28;20136;-74
2021/01/03 02:22:08;;;;;;;12.35;11.05;;;2.10;99.90;;;;;;5029429;28;20119;-74
2021/01/03 02:24:42;;;;;;;16.35;12.25;;;2.10;99.90;;;;;;5040871;28;20124;-75
2021/01/03 02:27:16;;;;;;;11.77;10.70;;;2.10;99.90;;;;;;5018003;28;20060;-74
2021/01/03 02:29:45;;;;;;;12.25;10.95;;;2.20;99.90;;;;;;5032237;28;20143;-73
2021/01/03 02:32:12;;;;;;;11.88;10.68;;;2.10;99.90;;;;;;5023606;28;20045;-74
2021/01/03 02:34:45;;;;;;;11.60;10.48;;;2.10;99.90;;;;;;5026468;28;20501;-74
2021/01/03 02:37:18;;;;;;;11.82;10.68;;;2.20;99.90;;;;;;5038966;28;20140;-74
2021/01/03 02:39:56;;;;;;;13.50;11.90;;;2.20;99.90;;;;;;5041342;28;20096;-74
2021/01/03 02:42:35;;;;;;;12.57;11.15;;;2.20;99.90;;;;;;5032346;28;20045;-75
2021/01/03 02:45:15;;;;;;;11.25;10.25;;;2.20;99.90;;;;;;5044972;28;20045;-74
2021/01/03 02:47:42;;;;;;;12.63;11.38;;;2.10;99.90;;;;;;5044064;28;20071;-73
2021/01/03 02:50:11;;;;;;;12.98;11.25;;;2.10;99.90;;;;;;5026801;28;20706;-74
2021/01/03 02:52:40;;;;;;;13.75;11.18;;;2.00;99.90;;;;;;5040302;28;20437;-75
2021/01/03 02:55:08;;;;;;;14.13;11.80;;;2.00;99.90;;;;;;5034561;28;20076;-74
2021/01/03 02:57:34;;;;;;;11.70;10.50;;;2.00;99.90;;;;;;5033703;28;20045;-74
2021/01/03 03:00:03;;;;;;;12.65;11.15;;;2.10;99.90;;;;;;5023609;28;20049;-74
2021/01/03 03:02:29;;;;;;;12.70;11.02;;;2.00;99.90;;;;;;5026369;28;20055;-74
2021/01/03 03:04:56;;;;;;;12.13;10.88;;;2.10;99.90;;;;;;5039650;28;20045;-75
2021/01/03 03:07:22;;;;;;;14.27;11.32;;;2.00;99.90;;;;;;5033650;28;20073;-75
2021/01/03 03:09:48;;;;;;;12.55;11.18;;;2.10;99.90;;;;;;5043706;28;20053;-74
2021/01/03 03:12:14;;;;;;;16.77;11.63;;;2.00;99.90;;;;;;5044711;28;20278;-74
2021/01/03 03:14:41;;;;;;;12.82;11.55;;;2.10;99.90;;;;;;5025946;28;20053;-73
2021/01/03 03:17:08;;;;;;;12.32;10.88;;;2.10;99.90;;;;;;5021840;28;20045;-75
2021/01/03 03:19:35;;;;;;;12.55;11.35;;;2.10;99.90;;;;;;5030878;28;20087;-74
2021/01/03 03:22:01;;;;;;;12.52;10.60;;;2.10;99.90;;;;;;5033773;28;20136;-74
2021/01/03 03:24:28;;;;;;;12.15;10.85;;;2.10;99.90;;;;;;5032673;28;20144;-75
2021/01/03 03:26:57;;;;;;;14.43;12.30;;;2.10;99.90;;;;;;5040613;28;20148;-74
2021/01/03 03:29:24;;;;;;;13.38;12.02;;;2.10;99.90;;;;;;5036373;28;20049;-74
2021/01/03 03:31:52;;;;;;;12.15;11.00;;;2.10;99.90;;;;;;5043816;28;20555;-75
2021/01/03 03:34:21;;;;;;;14.20;11.32;;;2.10;99.90;;;;;;5026960;28;20064;-74
2021/01/03 03:36:50;;;;;;;13.02;11.23;;;2.00;99.90;;;;;;5021895;28;20069;-74
2021/01/03 03:39:16;;;;;;;13.82;12.43;;;2.00;99.90;;;;;;5036505;28;20049;-74
2021/01/03 03:41:43;;;;;;;13.60;12.18;;;2.00;99.90;;;;;;5042420;28;20158;-74
2021/01/03 03:44:09;;;;;;;13.50;12.10;;;2.00;99.90;;;;;;5044347;28;20092;-75
2021/01/03 03:46:35;;;;;;;14.85;12.88;;;2.00;99.90;;;;;;5038694;28;20041;-75
2021/01/03 03:49:03;;;;;;;17.20;13.63;;;2.00;99.90;;;;;;5020520;28;20056;-75
2021/01/03 03:51:30;;;;;;;13.23;11.93;;;2.00;99.90;;;;;;5025164;28;20056;-75
2021/01/03 03:53:56;;;;;;;16.27;13.73;;;2.00;99.90;;;;;;5023968;28;20088;-75
2021/01/03 03:56:23;;;;;;;13.57;12.10;;;2.00;99.90;;;;;;5030452;28;20056;-74
2021/01/03 03:58:49;;;;;;;14.82;12.43;;;2.00;99.90;;;;;;5042740;28;20136;-74
2021/01/03 04:01:16;;;;;;;16.50;13.82;;;2.00;99.90;;;;;;5041355;28;20721;-74
2021/01/03 04:03:42;;;;;;;16.65;14.18;;;2.00;99.90;;;;;;5043800;28;20103;-75
2021/01/03 04:06:09;;;;;;;15.48;12.93;;;2.10;99.90;;;;;;5037257;28;20056;-75
2021/01/03 04:08:37;;;;;;;17.77;15.45;;;2.00;99.90;;;;;;5033382;28;20131;-75
2021/01/03 04:11:04;;;;;;;15.80;13.07;;;2.00;99.90;;;;;;5032876;28;20073;-75
2021/01/03 04:13:30;;;;;;;16.10;14.40;;;2.00;99.90;;;;;;5037773;28;20580;-74
2021/01/03 04:15:57;;;;;;;20.95;14.35;;;2.10;99.90;;;;;;5042203;28;20206;-74
2021/01/03 04:18:23;;;;;;;17.10;14.48;;;2.00;99.90;;;;;;5028721;28;20145;-74
2021/01/03 04:20:49;;;;;;;16.80;13.40;;;2.00;99.90;;;;;;5036031;28;20045;-74
2021/01/03 04:23:16;;;;;;;19.58;14.82;;;1.90;99.90;;;;;;5026106;28;20073;-74
2021/01/03 04:25:42;;;;;;;16.67;13.80;;;2.00;99.90;;;;;;5042154;28;20606;-74
2021/01/03 04:28:08;;;;;;;19.63;13.95;;;1.90;99.90;;;;;;5044661;28;20093;-74
2021/01/03 04:30:35;;;;;;;17.55;13.27;;;1.90;99.90;;;;;;5043668;28;20517;-74
2021/01/03 04:33:01;;;;;;;17.60;14.63;;;1.90;99.90;;;;;;5046312;28;20080;-74
2021/01/03 04:35:27;;;;;;;17.55;14.10;;;1.90;99.90;;;;;;5029253;28;20049;-74
2021/01/03 04:37:54;;;;;;;19.30;15.43;;;1.90;99.90;;;;;;5018293;28;20122;-75
2021/01/03 04:40:27;;;;;;;19.80;15.60;;;1.90;99.90;;;;;;5025412;28;20077;-74
2021/01/03 04:42:59;;;;;;;17.70;15.23;;;1.90;99.90;;;;;;5027700;28;20147;-74
2021/01/03 04:45:34;;;;;;;20.42;16.75;;;1.90;99.90;;;;;;5028798;28;20125;-74
2021/01/03 04:48:04;;;;;;;24.30;16.15;;;2.00;99.90;;;;;;5045794;28;20545;-75
2021/01/03 04:50:39;;;;;;;17.27;15.45;;;1.90;99.90;;;;;;5035053;28;20048;-75
2021/01/03 04:53:16;;;;;;;22.35;17.33;;;2.00;99.90;;;;;;5026114;28;20045;-74
2021/01/03 04:55:50;;;;;;;20.02;16.15;;;2.00;99.90;;;;;;5028219;28;20069;-74
2021/01/03 04:58:31;;;;;;;25.27;16.50;;;1.90;99.90;;;;;;5029613;28;20057;-74
2021/01/03 05:01:08;;;;;;;18.75;15.30;;;2.00;99.90;;;;;;5046719;28;20048;-75
2021/01/03 05:04:12;;;;;;;22.02;14.73;;;2.00;99.90;;;;;;5047140;28;20131;-74
2021/01/03 05:06:48;;;;;;;23.20;16.48;;;2.00;99.90;;;;;;5034246;28;20061;-73
2021/01/03 05:09:15;;;;;;;20.80;14.73;;;1.90;99.90;;;;;;5024116;28;20349;-74
2021/01/03 05:11:58;;;;;;;19.58;15.13;;;2.00;99.90;;;;;;5026560;28;20121;-74
2021/01/03 05:14:36;;;;;;;19.40;15.75;;;1.90;99.90;;;;;;5025944;28;20141;-74
2021/01/03 05:17:02;;;;;;;19.10;14.93;;;2.00;99.90;;;;;;5024951;28;20141;-74
2021/01/03 05:19:28;;;;;;;21.15;17.70;;;1.90;99.90;;;;;;5045432;28;20049;-74
2021/01/03 05:21:56;;;;;;;20.20;15.95;;;1.90;99.90;;;;;;5045013;28;20072;-74
2021/01/03 05:24:25;;;;;;;23.13;16.65;;;2.00;99.90;;;;;;5045685;28;20053;-74
2021/01/03 05:26:52;;;;;;;21.15;16.77;;;2.00;99.90;;;;;;5044724;28;20063;-74
2021/01/03 05:29:26;;;;;;;20.75;16.67;;;2.00;99.90;;;;;;5029281;28;20085;-73
2021/01/03 05:32:05;;;;;;;20.42;17.20;;;2.00;99.90;;;;;;5008862;28;20111;-75
2021/01/03 05:34:34;;;;;;;22.90;16.95;;;1.90;99.90;;;;;;5038407;28;20053;-75
2021/01/03 05:37:10;;;;;;;21.67;16.38;;;1.90;99.90;;;;;;5028453;28;20049;-75
2021/01/03 05:39:38;;;;;;;23.85;16.60;;;1.90;99.90;;;;;;5045700;28;20137;-74
2021/01/03 05:42:18;;;;;;;20.95;16.02;;;1.90;99.90;;;;;;5043879;28;20286;-74
2021/01/03 05:44:57;;;;;;;22.67;16.80;;;1.80;99.90;;;;;;5024245;28;20099;-75
2021/01/03 05:47:53;;;;;;;19.60;16.83;;;1.90;99.90;;;;;;5023353;28;20059;-74
2021/01/03 05:50:22;;;;;;;21.05;16.58;;;1.90;99.90;;;;;;5035011;28;20085;-75
2021/01/03 05:53:00;;;;;;;21.23;17.30;;;1.90;99.90;;;;;;5044163;28;20059;-74
2021/01/03 05:55:28;;;;;;;20.58;17.23;;;1.90;99.90;;;;;;5026321;28;20059;-74
2021/01/03 05:58:13;;;;;;;16.67;15.05;;;1.90;99.90;;;;;;5038107;28;20056;-74
2021/01/03 06:00:40;;;;;;;17.13;15.20;;;1.90;99.90;;;;;;5041819;28;20738;-74
2021/01/03 06:03:18;;;;;;;18.50;15.05;;;1.90;99.90;;;;;;5017737;28;20576;-74
2021/01/03 06:05:47;;;;;;;12.82;11.57;;;1.90;99.90;;;;;;5042962;28;20132;-74
2021/01/03 06:08:22;;;;;;;16.33;14.27;;;1.90;99.90;;;;;;5020081;28;20539;-74
2021/01/03 06:10:50;;;;;;;15.85;13.52;;;1.90;99.90;;;;;;5031109;28;20132;-74
2021/01/03 06:13:22;;;;;;;15.07;13.45;;;2.00;99.90;;;;;;5006814;28;20091;-74
2021/01/03 06:16:00;;;;;;;15.70;13.90;;;2.00;99.90;;;;;;5023689;28;20064;-74
2021/01/03 06:18:41;;;;;;;14.07;12.57;;;2.00;99.90;;;;;;5028107;28;20132;-74
2021/01/03 06:21:26;;;;;;;14.52;13.07;;;2.00;99.90;;;;;;5043336;28;20132;-74
2021/01/03 06:24:09;;;;;;;14.13;12.82;;;2.00;99.90;;;;;;5045006;28;20057;-74
2021/01/03 06:26:43;;;;;;;14.52;13.32;;;2.00;99.90;;;;;;5042963;28;20041;-74
2021/01/03 06:29:45;;;;;;;12.98;11.88;;;2.10;99.90;;;;;;5044048;28;20131;-75
2021/01/03 06:32:52;;;;;;;13.68;12.57;;;2.00;99.90;;;;;;5062455;28;20653;-75
2021/01/03 06:35:27;;;;;;;14.18;12.93;;;2.00;99.90;;;;;;5033144;28;20053;-74
2021/01/03 06:38:08;;;;;;;13.73;12.52;;;2.10;99.90;;;;;;5037841;28;20059;-74
2021/01/03 06:40:41;;;;;;;13.52;12.32;;;2.10;99.90;;;;;;5043392;28;20130;-74
2021/01/03 06:43:29;;;;;;;11.88;10.77;;;2.00;99.90;;;;;;5042784;28;20052;-74
2021/01/03 06:46:33;;;;;;;11.98;10.98;;;2.10;99.90;;;;;;5044259;28;20142;-75
2021/01/03 06:49:15;;;;;;;12.00;10.98;;;2.00;99.90;;;;;;5024732;28;20057;-74
2021/01/03 06:51:53;;;;;;;10.48;9.77;;;2.00;99.90;;;;;;5024429;28;20049;-74
2021/01/03 06:54:23;;;;;;;12.90;11.85;;;2.00;99.90;;;;;;5024387;28;20159;-74
2021/01/03 06:57:00;;;;;;;14.23;12.80;;;2.00;99.90;;;;;;5033397;28;20084;-74
2021/01/03 06:59:38;;;;;;;13.57;12.38;;;2.00;99.90;;;;;;5043199;28;20126;-74
2021/01/03 07:02:05;;;;;;;13.02;11.77;;;2.10;99.90;;;;;;5038537;28;20050;-74
2021/01/03 07:04:36;;;;;;;13.85;12.77;;;2.10;99.90;;;;;;5038463;28;20088;-74
2021/01/03 07:07:34;;;;;;;11.50;10.68;;;2.00;99.90;;;;;;5033728;28;20048;-74
2021/01/03 07:10:05;;;;;;;13.00;11.90;;;2.00;99.90;;;;;;5010399;28;20077;-74
2021/01/03 07:12:38;;;;;;;13.90;12.73;;;2.00;99.90;;;;;;5022669;28;20042;-74
2021/01/03 07:15:25;;;;;;;12.52;11.52;;;2.00;99.90;;;;;;5015969;28;20132;-74
2021/01/03 07:17:54;;;;;;;14.45;12.98;;;2.00;99.90;;;;;;5043815;28;20130;-74
2021/01/03 07:20:44;;;;;;;15.38;13.65;;;2.00;99.90;;;;;;5043901;28;20175;-74
2021/01/03 07:23:17;;;;;;;13.80;12.60;;;2.00;99.90;;;;;;5041979;28;20425;-74
2021/01/03 07:25:52;;;;;;;14.75;13.38;;;2.00;99.90;;;;;;5025163;28;20718;-75
2021/01/03 07:28:25;;;;;;;15.40;13.93;;;2.00;99.90;;;;;;5026092;28;20059;-74
2021/01/03 07:31:01;;;;;;;14.93;13.60;;;2.00;99.90;;;;;;5043527;28;20091;-74
2021/01/03 07:33:46;;;;;;;14.30;13.00;;;2.00;99.90;;;;;;5034285;28;20238;-75
2021/01/03 07:36:51;;;;;;;16.25;14.88;;;2.00;99.90;;;;;;5036988;28;20228;-74
2021/01/03 07:39:31;;;;;;;15.23;13.82;;;2.00;99.90;;;;;;4993543;28;20084;-74
2021/01/03 07:42:18;;;;;;;17.05;15.35;;;2.00;99.90;;;;;;5043532;28;20068;-74
2021/01/03 07:44:45;;;;;;;17.77;16.08;;;1.90;99.90;;;;;;5042894;28;20048;-75
2021/01/03 07:47:32;;;;;;;22.23;15.77;;;1.90;99.90;;;;;;5041899;28;20706;-74
2021/01/03 07:50:22;;;;;;;18.52;15.18;;;1.90;99.90;;;;;;5036289;28;20072;-74
2021/01/03 07:52:59;;;;;;;17.75;14.30;;;1.90;99.90;;;;;;5003672;28;20050;-74
2021/01/03 07:55:30;;;;;;;18.73;15.77;;;1.90;99.90;;;;;;5004158;28;20558;-74
2021/01/03 07:58:01;;;;;;;12.45;11.23;;;1.80;99.90;;;;;;5022334;28;20080;-74
2021/01/03 08:00:31;;;;;;;17.92;15.00;;;1.80;99.90;;;;;;5025757;28;20490;-74
2021/01/03 08:03:09;;;;;;;17.30;14.98;;;1.80;99.90;;;;;;5032813;28;20042;-74
2021/01/03 08:05:38;;;;;;;19.90;15.70;;;1.80;99.90;;;;;;5039611;28;20060;-76
2021/01/03 08:08:10;;;;;;;17.90;14.27;;;1.80;99.90;;;;;;5038269;28;20045;-73
2021/01/03 08:10:37;;;;;;;21.02;14.23;;;1.80;99.90;;;;;;5048178;28;20041;-74
2021/01/03 08:13:12;;;;;;;22.95;14.45;;;1.70;99.90;;;;;;5047996;28;20572;-74
2021/01/03 08:15:39;;;;;;;16.00;14.37;;;1.70;99.90;;;;;;5046118;28;20052;-75
2021/01/03 08:18:16;;;;;;;16.92;13.77;;;1.80;99.90;;;;;;5046687;28;20299;-74
2021/01/03 08:20:43;;;;;;;20.55;15.20;;;1.90;99.90;;;;;;5046181;28;20041;-74
2021/01/03 08:23:27;;;;;;;16.58;13.50;;;1.80;99.90;;;;;;5046688;28;20520;-74
2021/01/03 08:26:07;;;;;;;16.08;13.63;;;1.90;99.90;;;;;;5047000;28;20268;-75
2021/01/03 08:28:38;;;;;;;18.52;13.88;;;1.90;99.90;;;;;;5047529;28;20186;-74
2021/01/03 08:31:06;;;;;;;13.85;12.27;;;1.80;99.90;;;;;;5046912;28;20079;-74
2021/01/03 08:33:38;;;;;;;18.30;14.52;;;1.80;99.90;;;;;;5046513;28;20055;-74
2021/01/03 08:36:33;;;;;;;13.45;11.77;;;1.80;99.90;;;;;;5045227;28;20057;-74
2021/01/03 08:39:04;;;;;;;16.30;13.60;;;1.80;99.90;;;;;;5046538;28;20059;-75
2021/01/03 08:41:34;;;;;;;16.60;13.93;;;1.80;99.90;;;;;;5047057;28;20422;-74
2021/01/03 08:44:03;;;;;;;17.13;14.00;;;1.80;99.90;;;;;;5047408;28;20045;-74
2021/01/03 08:46:33;;;;;;;18.73;14.90;;;1.90;99.90;;;;;;5043749;28;20130;-74
2021/01/03 08:49:05;;;;;;;17.30;12.68;;;1.80;99.90;;;;;;5017903;28;20155;-74
2021/01/03 08:51:32;;;;;;;19.30;13.75;;;1.80;99.90;;;;;;5037957;28;20142;-74
2021/01/03 08:54:05;;;;;;;16.85;14.43;;;1.80;99.90;;;;;;5046271;28;20053;-74
2021/01/03 08:56:51;;;;;;;12.95;11.75;;;1.80;99.90;;;;;;5034716;28;20136;-73
2021/01/03 08:59:18;;;;;;;20.15;14.90;;;1.80;99.90;;;;;;5025443;28;20060;-75
2021/01/03 09:01:45;;;;;;;19.60;16.60;;;1.80;99.90;;;;;;5009491;28;20479;-74
2021/01/03 09:04:15;;;;;;;19.30;15.88;;;1.80;99.90;;;;;;5028151;28;20569;-74
2021/01/03 09:06:44;;;;;;;16.50;14.70;;;1.90;99.90;;;;;;5040184;28;20051;-74
2021/01/03 09:09:17;;;;;;;16.38;13.90;;;2.00;99.90;;;;;;5036926;28;20501;-74
2021/01/03 09:11:57;;;;;;;16.80;13.15;;;2.00;99.90;;;;;;5039333;28;20045;-74
2021/01/03 09:14:49;;;;;;;17.52;13.98;;;1.90;99.90;;;;;;5001007;28;20128;-75
2021/01/03 09:17:20;;;;;;;15.77;12.68;;;1.90;99.90;;;;;;5031114;28;20054;-74
2021/01/03 09:20:05;;;;;;;12.05;10.82;;;1.90;99.90;;;;;;5033005;28;20057;-74
2021/01/03 09:22:33;;;;;;;15.85;12.90;;;1.90;99.90;;;;;;5008081;28;20068;-75
2021/01/03 09:25:21;;;;;;;15.38;13.38;;;1.80;99.90;;;;;;5024495;28;20069;-75
2021/01/03 09:27:56;;;;;;;17.55;13.23;;;1.90;99.90;;;;;;5024892;28;20522;-74
2021/01/03 09:30:33;;;;;;;11.93;10.93;;;2.00;99.90;;;;;;5021160;28;20065;-74
2021/01/03 09:33:15;;;;;;;15.75;11.85;;;2.00;99.90;;;;;;5023130;28;20320;-73
2021/01/03 09:35:47;;;;;;;18.67;13.88;;;1.90;99.90;;;;;;5027114;28;20124;-74
2021/01/03 09:38:52;;;;;;;14.88;11.88;;;1.90;99.90;;;;;;5020593;28;20050;-74
2021/01/03 09:41:24;;;;;;;17.90;13.48;;;1.90;99.90;;;;;;5024665;28;20506;-74
2021/01/03 09:44:28;;;;;;;18.30;13.50;;;2.00;99.90;;;;;;5017227;28;20108;-74
2021/01/03 09:47:07;;;;;;;13.88;12.18;;;2.00;99.90;;;;;;5035935;28;20045;-74
2021/01/03 09:49:36;;;;;;;11.65;10.48;;;2.00;99.90;;;;;;5045437;28;20049;-74
2021/01/03 09:52:17;;;;;;;17.75;12.80;;;2.00;99.90;;;;;;5044927;28;20045;-74
2021/01/03 09:54:55;;;;;;;17.90;12.63;;;2.00;99.90;;;;;;5045479;28;20489;-74
2021/01/03 09:57:47;;;;;;;12.05;10.75;;;2.10;99.90;;;;;;5027696;28;20076;-75
2021/01/03 10:00:21;;;;;;;16.02;13.18;;;2.10;99.90;;;;;;5027087;28;20144;-74
2021/01/03 10:02:48;;;;;;;14.52;13.02;;;2.10;99.90;;;;;;5045785;28;20041;-74
2021/01/03 10:05:38;;;;;;;16.73;12.80;;;2.00;99.90;;;;;;5040407;28;20063;-74
2021/01/03 10:08:08;;;;;;;16.60;12.95;;;2.10;99.90;;;;;;5037802;28;20134;-74
2021/01/03 10:10:57;;;;;;;19.35;13.65;;;2.00;99.90;;;;;;5036116;28;20110;-74
2021/01/03 10:13:26;;;;;;;18.58;14.50;;;2.00;99.90;;;;;;5044981;28;20056;-74
2021/01/03 10:15:53;;;;;;;15.25;13.35;;;2.00;99.90;;;;;;5043564;28;20045;-74
2021/01/03 10:18:46;;;;;;;16.45;13.85;;;2.10;99.90;;;;;;5044451;28;20116;-74
2021/01/03 10:21:20;;;;;;;19.45;13.85;;;2.00;99.90;;;;;;5041792;28;20131;-75
2021/01/03 10:23:55;;;;;;;16.42;14.18;;;2.00;99.90;;;;;;5043979;28;20679;-75
2021/01/03 10:26:29;;;;;;;17.17;13.63;;;1.90;99.90;;;;;;5043621;28;20472;-74
2021/01/03 10:28:56;;;;;;;21.27;14.70;;;1.80;99.90;;;;;;5045044;28;20098;-74
2021/01/03 10:31:36;;;;;;;24.27;16.83;;;1.70;99.90;;;;;;5043731;28;20072;-74
2021/01/03 10:34:02;;;;;;;17.67;15.43;;;1.80;99.90;;;;;;5027196;28;20135;-74
2021/01/03 10:36:28;;;;;;;22.00;16.52;;;2.00;99.90;;;;;;5037766;28;20457;-75
2021/01/03 10:38:54;;;;;;;21.55;16.83;;;2.00;99.90;;;;;;5042527;28;20094;-74
2021/01/03 10:41:29;;;;;;;19.33;16.85;;;2.00;99.90;;;;;;5038765;28;20486;-74
2021/01/03 10:43:55;;;;;;;22.27;16.25;;;2.00;99.90;;;;;;4992084;28;20077;-74
2021/01/03 10:46:21;;;;;;;23.10;16.90;;;1.90;99.90;;;;;;5040931;28;20129;-74
2021/01/03 10:48:48;;;;;;;21.02;15.73;;;1.90;99.90;;;;;;5036280;28;20060;-75
2021/01/03 10:51:27;;;;;;;18.73;15.15;;;1.80;99.90;;;;;;5043375;28;20044;-74
2021/01/03 10:53:54;;;;;;;22.25;17.17;;;1.70;99.90;;;;;;5043358;28;20077;-74
2021/01/03 10:56:20;;;;;;;21.27;14.77;;;1.80;99.90;;;;;;5005831;28;20088;-74
2021/01/03 10:58:47;;;;;;;19.85;16.40;;;1.90;99.90;;;;;;5023628;28;20053;-74
2021/01/03 11:01:13;;;;;;;21.02;17.20;;;1.90;99.90;;;;;;5005759;28;20285;-74
2021/01/03 11:03:41;;;;;;;18.70;14.40;;;2.10;99.90;;;;;;5023251;28;20122;-74
2021/01/03 11:06:24;;;;;;;21.58;15.98;;;2.10;99.90;;;;;;5040163;28;20052;-75
2021/01/03 11:08:52;;;;;;;23.50;14.95;;;2.00;99.90;;;;;;5049239;28;20049;-74
2021/01/03 11:11:20;;;;;;;22.38;16.98;;;2.00;99.90;;;;;;5041955;28;20056;-74
2021/01/03 11:13:47;;;;;;;23.02;16.05;;;2.00;99.90;;;;;;5042088;28;20076;-75
2021/01/03 11:16:13;;;;;;;20.40;14.48;;;2.00;99.90;;;;;;5041549;28;20049;-75
2021/01/03 11:18:40;;;;;;;22.25;15.35;;;1.90;99.90;;;;;;5026580;28;20071;-75
2021/01/03 11:21:10;;;;;;;28.98;17.90;;;1.80;99.90;;;;;;5042842;28;20055;-75
2021/01/03 11:23:37;;;;;;;21.77;14.88;;;1.90;99.90;;;;;;5042953;28;20049;-74
2021/01/03 11:26:04;;;;;;;28.70;16.05;;;1.90;99.90;;;;;;5042138;28;20099;-74
2021/01/03 11:28:31;;;;;;;21.77;14.95;;;2.00;99.90;;;;;;5030152;28;20068;-75
2021/01/03 11:30:57;;;;;;;28.48;17.00;;;1.90;99.90;;;;;;5025547;28;20135;-74
2021/01/03 11:33:24;;;;;;;28.58;17.50;;;1.90;99.90;;;;;;5028451;28;20145;-75
2021/01/03 11:35:50;;;;;;;21.27;15.95;;;1.80;99.90;;;;;;5041031;28;20520;-74
2021/01/03 11:38:17;;;;;;;23.40;16.08;;;1.70;99.90;;;;;;5035847;28;20056;-74
2021/01/03 11:40:43;;;;;;;19.85;14.48;;;1.70;99.90;;;;;;5019335;28;20158;-74
2021/01/03 11:43:09;;;;;;;28.05;18.63;;;1.70;99.90;;;;;;5033360;28;20050;-74
2021/01/03 11:45:36;;;;;;;29.20;17.67;;;1.70;99.90;;;;;;5032633;28;20128;-75
2021/01/03 11:48:04;;;;;;;28.70;17.95;;;1.70;99.90;;;;;;5047176;28;20049;-74
2021/01/03 11:50:30;;;;;;;23.42;14.70;;;1.70;99.90;;;;;;5044387;28;20049;-74
2021/01/03 11:52:58;;;;;;;31.02;17.05;;;1.60;99.90;;;;;;5027673;28;20552;-75
2021/01/03 11:55:25;;;;;;;29.13;16.60;;;1.60;99.90;;;;;;5045618;28;20041;-74
2021/01/03 11:57:51;;;;;;;22.98;15.63;;;1.60;99.90;;;;;;5030946;28;20151;-73
2021/01/03 12:00:18;;;;;;;25.10;17.02;;;1.50;99.90;;;;;;5044860;28;20140;-73
2021/01/03 12:02:44;;;;;;;25.70;15.73;;;1.50;99.90;;;;;;5028879;28;20079;-74
2021/01/03 12:05:17;;;;;;;28.85;16.42;;;1.60;99.90;;;;;;5046244;28;20079;-74
2021/01/03 12:07:43;;;;;;;30.83;17.77;;;1.50;99.90;;;;;;5044757;28;20132;-74
2021/01/03 12:10:10;;;;;;;30.50;18.25;;;1.50;99.90;;;;;;5046111;28;20724;-74
2021/01/03 12:12:36;;;;;;;19.88;12.68;;;1.50;99.90;;;;;;5048044;28;20053;-74
2021/01/03 12:15:05;;;;;;;29.05;16.88;;;1.50;99.90;;;;;;5044961;28;20053;-74
2021/01/03 12:17:31;;;;;;;24.10;14.60;;;1.50;99.90;;;;;;5042708;28;20091;-75
2021/01/03 12:19:58;;;;;;;22.73;15.55;;;1.60;99.90;;;;;;5048040;28;20314;-75
2021/01/03 12:22:24;;;;;;;21.13;14.43;;;1.50;99.90;;;;;;5047650;28;20152;-76
2021/01/03 12:24:50;;;;;;;26.52;16.00;;;1.40;99.90;;;;;;5046369;28;20175;-76
2021/01/03 12:27:19;;;;;;;27.50;15.88;;;1.50;99.90;;;;;;5026321;28;20054;-75
2021/01/03 12:29:45;;;;;;;24.40;15.13;;;1.50;99.90;;;;;;5027318;28;20139;-75
2021/01/03 12:32:14;;;;;;;16.80;10.98;;;1.50;99.90;;;;;;5026860;28;20134;-75
2021/01/03 12:34:41;;;;;;;20.27;13.65;;;1.40;99.90;;;;;;5043549;28;20136;-77
2021/01/03 12:37:13;;;;;;;21.40;14.75;;;1.30;99.90;;;;;;5057082;28;20587;-76
2021/01/03 12:39:40;;;;;;;22.17;13.10;;;1.30;99.90;;;;;;5018240;28;20562;-76
2021/01/03 12:42:13;;;;;;;20.58;13.70;;;1.30;99.90;;;;;;5038412;28;20110;-76
2021/01/03 12:44:39;;;;;;;19.60;13.52;;;1.30;99.90;;;;;;5045494;28;20110;-76
2021/01/03 12:47:06;;;;;;;20.15;12.13;;;1.40;99.90;;;;;;5042484;28;20064;-76
2021/01/03 12:49:33;;;;;;;21.67;13.45;;;1.40;99.90;;;;;;5042135;28;20037;-75
2021/01/03 12:52:00;;;;;;;17.30;12.05;;;1.40;99.90;;;;;;5038399;28;20534;-75
2021/01/03 12:54:27;;;;;;;18.23;11.05;;;1.30;99.90;;;;;;5027630;28;20048;-75
2021/01/03 12:56:53;;;;;;;16.13;11.70;;;1.20;99.90;;;;;;5033237;28;20061;-74
2021/01/03 12:59:20;;;;;;;16.08;10.95;;;1.10;99.90;;;;;;5041241;28;20156;-75
2021/01/03 13:01:47;;;;;;;16.15;11.40;;;1.10;99.90;;;;;;5025356;28;20115;-74